sensor_id;sensor_type;location;lat;lon;timestamp;P1;P2;P0
73414;PMS5003;61633;53.742;-2.990;2022-09-03T00:01:26;13;11;
73414;PMS5003;61633;53.742;-2.990;2022-09-03T00:03:51;17;15;
73414;PMS5003;61633;53.742;-2.990;2022-09-03T00:06:17;13;13;
73414;PMS5003;61633;53.742;-2.990;2022-09-03T00:08:42;15;15;
73414;PMS5003;61633;53.742;-2.990;2022-09-03T00:11:09;13;13;
73414;PMS5003;61633;53.742;-2.990;2022-09-03T00:13:33;14;14;
73414;PMS5003;61633;53.742;-2.990;2022-09-03T00:15:57;18;15;
73414;PMS5003;61633;53.742;-2.990;2022-09-03T00:18:24;17;16;
73414;PMS5003;61633;53.742;-2.990;2022-09-03T00:20:50;16;16;
73414;PMS5003;61633;53.742;-2.990;2022-09-03T00:23:15;21;21;
73414;PMS5003;61633;53.742;-2.990;2022-09-03T00:25:41;21;18;
73414;PMS5003;61633;53.742;-2.990;2022-09-03T00:28:06;20;18;
73414;PMS5003;61633;53.742;-2.990;2022-09-03T00:30:31;19;18;
73414;PMS5003;61633;53.742;-2.990;2022-09-03T00:32:58;21;20;
73414;PMS5003;61633;53.742;-2.990;2022-09-03T00:35:23;21;19;
73414;PMS5003;61633;53.742;-2.990;2022-09-03T00:37:47;20;20;
73414;PMS5003;61633;53.742;-2.990;2022-09-03T00:40:17;23;20;
73414;PMS5003;61633;53.742;-2.990;2022-09-03T00:42:41;22;20;
73414;PMS5003;61633;53.742;-2.990;2022-09-03T00:45:09;25;24;
73414;PMS5003;61633;53.742;-2.990;2022-09-03T00:47:31;21;21;
73414;PMS5003;61633;53.742;-2.990;2022-09-03T00:49:58;30;29;
73414;PMS5003;61633;53.742;-2.990;2022-09-03T00:52:23;24;24;
73414;PMS5003;61633;53.742;-2.990;2022-09-03T00:54:48;21;20;
73414;PMS5003;61633;53.742;-2.990;2022-09-03T00:57:16;24;24;
73414;PMS5003;61633;53.742;-2.990;2022-09-03T00:59:38;24;24;
73414;PMS5003;61633;53.742;-2.990;2022-09-03T01:02:06;29;25;
73414;PMS5003;61633;53.742;-2.990;2022-09-03T01:04:32;28;24;
73414;PMS5003;61633;53.742;-2.990;2022-09-03T01:06:56;28;27;
73414;PMS5003;61633;53.742;-2.990;2022-09-03T01:09:24;31;27;
73414;PMS5003;61633;53.742;-2.990;2022-09-03T01:11:49;28;25;
73414;PMS5003;61633;53.742;-2.990;2022-09-03T01:14:13;33;31;
73414;PMS5003;61633;53.742;-2.990;2022-09-03T01:16:38;34;30;
73414;PMS5003;61633;53.742;-2.990;2022-09-03T01:19:04;28;28;
73414;PMS5003;61633;53.742;-2.990;2022-09-03T01:21:36;28;28;
73414;PMS5003;61633;53.742;-2.990;2022-09-03T01:23:58;28;27;
73414;PMS5003;61633;53.742;-2.990;2022-09-03T01:26:25;29;29;
73414;PMS5003;61633;53.742;-2.990;2022-09-03T01:28:47;32;29;
73414;PMS5003;61633;53.742;-2.990;2022-09-03T01:31:14;30;29;
73414;PMS5003;61633;53.742;-2.990;2022-09-03T01:33:36;32;31;
73414;PMS5003;61633;53.742;-2.990;2022-09-03T01:36:03;35;34;
73414;PMS5003;61633;53.742;-2.990;2022-09-03T01:38:29;30;30;
73414;PMS5003;61633;53.742;-2.990;2022-09-03T01:40:55;34;34;
73414;PMS5003;61633;53.742;-2.990;2022-09-03T01:43:22;33;31;
73414;PMS5003;61633;53.742;-2.990;2022-09-03T01:45:46;27;26;
73414;PMS5003;61633;53.742;-2.990;2022-09-03T01:48:13;37;37;
73414;PMS5003;61633;53.742;-2.990;2022-09-03T01:50:38;33;33;
73414;PMS5003;61633;53.742;-2.990;2022-09-03T01:53:02;33;31;
73414;PMS5003;61633;53.742;-2.990;2022-09-03T01:55:29;35;34;
73414;PMS5003;61633;53.742;-2.990;2022-09-03T01:57:52;35;34;
73414;PMS5003;61633;53.742;-2.990;2022-09-03T02:00:16;34;33;
73414;PMS5003;61633;53.742;-2.990;2022-09-03T02:02:42;33;33;
73414;PMS5003;61633;53.742;-2.990;2022-09-03T02:05:07;33;32;
73414;PMS5003;61633;53.742;-2.990;2022-09-03T02:07:32;34;32;
73414;PMS5003;61633;53.742;-2.990;2022-09-03T02:09:57;32;31;
73414;PMS5003;61633;53.742;-2.990;2022-09-03T02:12:23;32;32;
73414;PMS5003;61633;53.742;-2.990;2022-09-03T02:14:48;37;34;
73414;PMS5003;61633;53.742;-2.990;2022-09-03T02:17:14;33;31;
73414;PMS5003;61633;53.742;-2.990;2022-09-03T02:19:39;34;33;
73414;PMS5003;61633;53.742;-2.990;2022-09-03T02:22:04;33;33;
73414;PMS5003;61633;53.742;-2.990;2022-09-03T02:24:31;28;27;
73414;PMS5003;61633;53.742;-2.990;2022-09-03T02:26:56;32;32;
73414;PMS5003;61633;53.742;-2.990;2022-09-03T02:29:21;31;31;
73414;PMS5003;61633;53.742;-2.990;2022-09-03T02:31:47;32;32;
73414;PMS5003;61633;53.742;-2.990;2022-09-03T02:34:12;32;30;
73414;PMS5003;61633;53.742;-2.990;2022-09-03T02:36:40;32;30;
73414;PMS5003;61633;53.742;-2.990;2022-09-03T02:39:03;29;28;
73414;PMS5003;61633;53.742;-2.990;2022-09-03T02:41:29;35;32;
73414;PMS5003;61633;53.742;-2.990;2022-09-03T02:43:56;33;30;
73414;PMS5003;61633;53.742;-2.990;2022-09-03T02:46:20;33;31;
73414;PMS5003;61633;53.742;-2.990;2022-09-03T02:48:45;41;34;
73414;PMS5003;61633;53.742;-2.990;2022-09-03T02:51:11;30;29;
73414;PMS5003;61633;53.742;-2.990;2022-09-03T02:53:36;34;34;
73414;PMS5003;61633;53.742;-2.990;2022-09-03T02:56:02;32;30;
73414;PMS5003;61633;53.742;-2.990;2022-09-03T02:58:27;33;32;
73414;PMS5003;61633;53.742;-2.990;2022-09-03T03:00:52;28;28;
73414;PMS5003;61633;53.742;-2.990;2022-09-03T03:03:17;30;30;
73414;PMS5003;61633;53.742;-2.990;2022-09-03T03:05:44;30;29;
73414;PMS5003;61633;53.742;-2.990;2022-09-03T03:08:09;37;34;
73414;PMS5003;61633;53.742;-2.990;2022-09-03T03:10:34;35;34;
73414;PMS5003;61633;53.742;-2.990;2022-09-03T03:12:59;34;32;
73414;PMS5003;61633;53.742;-2.990;2022-09-03T03:15:24;39;36;
73414;PMS5003;61633;53.742;-2.990;2022-09-03T03:17:50;32;31;
73414;PMS5003;61633;53.742;-2.990;2022-09-03T03:20:16;34;34;
73414;PMS5003;61633;53.742;-2.990;2022-09-03T03:22:42;37;34;
73414;PMS5003;61633;53.742;-2.990;2022-09-03T03:25:08;34;32;
73414;PMS5003;61633;53.742;-2.990;2022-09-03T03:27:33;40;36;
73414;PMS5003;61633;53.742;-2.990;2022-09-03T03:29:59;31;28;
73414;PMS5003;61633;53.742;-2.990;2022-09-03T03:32:25;39;37;
73414;PMS5003;61633;53.742;-2.990;2022-09-03T03:34:50;41;37;
73414;PMS5003;61633;53.742;-2.990;2022-09-03T03:37:15;40;37;
73414;PMS5003;61633;53.742;-2.990;2022-09-03T03:39:40;39;39;
73414;PMS5003;61633;53.742;-2.990;2022-09-03T03:42:11;43;40;
73414;PMS5003;61633;53.742;-2.990;2022-09-03T03:44:31;40;37;
73414;PMS5003;61633;53.742;-2.990;2022-09-03T03:46:56;43;40;
73414;PMS5003;61633;53.742;-2.990;2022-09-03T03:49:21;41;40;
73414;PMS5003;61633;53.742;-2.990;2022-09-03T03:51:46;44;40;
73414;PMS5003;61633;53.742;-2.990;2022-09-03T03:54:12;42;41;
73414;PMS5003;61633;53.742;-2.990;2022-09-03T03:56:37;48;44;
73414;PMS5003;61633;53.742;-2.990;2022-09-03T03:59:02;45;41;
73414;PMS5003;61633;53.742;-2.990;2022-09-03T04:01:29;48;46;
73414;PMS5003;61633;53.742;-2.990;2022-09-03T04:03:54;47;44;
73414;PMS5003;61633;53.742;-2.990;2022-09-03T04:06:20;45;42;
73414;PMS5003;61633;53.742;-2.990;2022-09-03T04:08:47;53;51;
73414;PMS5003;61633;53.742;-2.990;2022-09-03T04:11:12;50;47;
73414;PMS5003;61633;53.742;-2.990;2022-09-03T04:13:37;47;47;
73414;PMS5003;61633;53.742;-2.990;2022-09-03T04:16:02;56;50;
73414;PMS5003;61633;53.742;-2.990;2022-09-03T04:18:27;52;51;
73414;PMS5003;61633;53.742;-2.990;2022-09-03T04:20:53;59;55;
73414;PMS5003;61633;53.742;-2.990;2022-09-03T04:23:18;58;55;
73414;PMS5003;61633;53.742;-2.990;2022-09-03T04:25:50;60;57;
73414;PMS5003;61633;53.742;-2.990;2022-09-03T04:28:09;54;52;
73414;PMS5003;61633;53.742;-2.990;2022-09-03T04:30:36;59;53;
73414;PMS5003;61633;53.742;-2.990;2022-09-03T04:32:59;51;51;
73414;PMS5003;61633;53.742;-2.990;2022-09-03T04:35:25;47;44;
73414;PMS5003;61633;53.742;-2.990;2022-09-03T04:37:50;57;52;
73414;PMS5003;61633;53.742;-2.990;2022-09-03T04:40:21;57;55;
73414;PMS5003;61633;53.742;-2.990;2022-09-03T04:42:41;52;48;
73414;PMS5003;61633;53.742;-2.990;2022-09-03T04:45:06;60;54;
73414;PMS5003;61633;53.742;-2.990;2022-09-03T04:47:31;57;54;
73414;PMS5003;61633;53.742;-2.990;2022-09-03T04:49:56;51;50;
73414;PMS5003;61633;53.742;-2.990;2022-09-03T04:52:21;60;59;
73414;PMS5003;61633;53.742;-2.990;2022-09-03T04:54:47;58;51;
73414;PMS5003;61633;53.742;-2.990;2022-09-03T04:57:12;54;49;
73414;PMS5003;61633;53.742;-2.990;2022-09-03T04:59:38;60;58;
73414;PMS5003;61633;53.742;-2.990;2022-09-03T05:02:03;55;51;
73414;PMS5003;61633;53.742;-2.990;2022-09-03T05:04:29;58;56;
73414;PMS5003;61633;53.742;-2.990;2022-09-03T05:06:54;59;55;
73414;PMS5003;61633;53.742;-2.990;2022-09-03T05:09:20;61;55;
73414;PMS5003;61633;53.742;-2.990;2022-09-03T05:11:46;62;59;
73414;PMS5003;61633;53.742;-2.990;2022-09-03T05:14:11;58;53;
73414;PMS5003;61633;53.742;-2.990;2022-09-03T05:16:37;59;58;
73414;PMS5003;61633;53.742;-2.990;2022-09-03T05:19:03;57;54;
73414;PMS5003;61633;53.742;-2.990;2022-09-03T05:21:28;56;55;
73414;PMS5003;61633;53.742;-2.990;2022-09-03T05:23:54;61;57;
73414;PMS5003;61633;53.742;-2.990;2022-09-03T05:26:20;61;56;
73414;PMS5003;61633;53.742;-2.990;2022-09-03T05:28:45;61;58;
73414;PMS5003;61633;53.742;-2.990;2022-09-03T05:31:12;61;57;
73414;PMS5003;61633;53.742;-2.990;2022-09-03T05:33:37;63;60;
73414;PMS5003;61633;53.742;-2.990;2022-09-03T05:36:03;54;51;
73414;PMS5003;61633;53.742;-2.990;2022-09-03T05:38:28;60;57;
73414;PMS5003;61633;53.742;-2.990;2022-09-03T05:40:53;59;54;
73414;PMS5003;61633;53.742;-2.990;2022-09-03T05:43:18;71;65;
73414;PMS5003;61633;53.742;-2.990;2022-09-03T05:45:44;63;61;
73414;PMS5003;61633;53.742;-2.990;2022-09-03T05:48:10;66;62;
73414;PMS5003;61633;53.742;-2.990;2022-09-03T05:50:35;54;50;
73414;PMS5003;61633;53.742;-2.990;2022-09-03T05:53:01;63;60;
73414;PMS5003;61633;53.742;-2.990;2022-09-03T05:55:26;63;59;
73414;PMS5003;61633;53.742;-2.990;2022-09-03T05:57:52;69;65;
73414;PMS5003;61633;53.742;-2.990;2022-09-03T06:00:17;65;60;
73414;PMS5003;61633;53.742;-2.990;2022-09-03T06:02:42;76;66;
73414;PMS5003;61633;53.742;-2.990;2022-09-03T06:05:08;63;60;
73414;PMS5003;61633;53.742;-2.990;2022-09-03T06:07:33;72;67;
73414;PMS5003;61633;53.742;-2.990;2022-09-03T06:09:59;73;70;
73414;PMS5003;61633;53.742;-2.990;2022-09-03T06:12:24;69;63;
73414;PMS5003;61633;53.742;-2.990;2022-09-03T06:14:50;72;63;
73414;PMS5003;61633;53.742;-2.990;2022-09-03T06:17:15;71;67;
73414;PMS5003;61633;53.742;-2.990;2022-09-03T06:19:40;66;59;
73414;PMS5003;61633;53.742;-2.990;2022-09-03T06:22:06;70;62;
73414;PMS5003;61633;53.742;-2.990;2022-09-03T06:24:32;71;64;
73414;PMS5003;61633;53.742;-2.990;2022-09-03T06:26:57;66;60;
73414;PMS5003;61633;53.742;-2.990;2022-09-03T06:29:22;67;61;
73414;PMS5003;61633;53.742;-2.990;2022-09-03T06:31:48;65;63;
73414;PMS5003;61633;53.742;-2.990;2022-09-03T06:34:14;68;63;
73414;PMS5003;61633;53.742;-2.990;2022-09-03T06:36:39;76;69;
73414;PMS5003;61633;53.742;-2.990;2022-09-03T06:39:05;64;62;
73414;PMS5003;61633;53.742;-2.990;2022-09-03T06:41:30;69;65;
73414;PMS5003;61633;53.742;-2.990;2022-09-03T06:43:56;67;62;
73414;PMS5003;61633;53.742;-2.990;2022-09-03T06:46:21;70;63;
73414;PMS5003;61633;53.742;-2.990;2022-09-03T06:48:47;71;66;
73414;PMS5003;61633;53.742;-2.990;2022-09-03T06:51:13;66;62;
73414;PMS5003;61633;53.742;-2.990;2022-09-03T06:53:38;68;61;
73414;PMS5003;61633;53.742;-2.990;2022-09-03T06:56:03;65;62;
73414;PMS5003;61633;53.742;-2.990;2022-09-03T06:58:29;68;64;
73414;PMS5003;61633;53.742;-2.990;2022-09-03T07:01:00;62;61;
73414;PMS5003;61633;53.742;-2.990;2022-09-03T07:03:19;62;57;
73414;PMS5003;61633;53.742;-2.990;2022-09-03T07:05:45;71;65;
73414;PMS5003;61633;53.742;-2.990;2022-09-03T07:08:10;59;53;
73414;PMS5003;61633;53.742;-2.990;2022-09-03T07:10:36;64;59;
73414;PMS5003;61633;53.742;-2.990;2022-09-03T07:13:01;61;60;
73414;PMS5003;61633;53.742;-2.990;2022-09-03T07:15:27;68;64;
73414;PMS5003;61633;53.742;-2.990;2022-09-03T07:17:52;65;64;
73414;PMS5003;61633;53.742;-2.990;2022-09-03T07:20:17;58;56;
73414;PMS5003;61633;53.742;-2.990;2022-09-03T07:22:42;66;65;
73414;PMS5003;61633;53.742;-2.990;2022-09-03T07:25:08;56;53;
73414;PMS5003;61633;53.742;-2.990;2022-09-03T07:27:33;60;56;
73414;PMS5003;61633;53.742;-2.990;2022-09-03T07:29:58;63;56;
73414;PMS5003;61633;53.742;-2.990;2022-09-03T07:32:23;52;49;
73414;PMS5003;61633;53.742;-2.990;2022-09-03T07:34:49;60;55;
73414;PMS5003;61633;53.742;-2.990;2022-09-03T07:37:15;56;53;
73414;PMS5003;61633;53.742;-2.990;2022-09-03T07:39:40;53;51;
73414;PMS5003;61633;53.742;-2.990;2022-09-03T07:42:06;62;56;
73414;PMS5003;61633;53.742;-2.990;2022-09-03T07:44:31;50;46;
73414;PMS5003;61633;53.742;-2.990;2022-09-03T07:46:57;55;52;
73414;PMS5003;61633;53.742;-2.990;2022-09-03T07:49:23;49;48;
73414;PMS5003;61633;53.742;-2.990;2022-09-03T07:51:48;53;53;
73414;PMS5003;61633;53.742;-2.990;2022-09-03T07:54:14;55;53;
73414;PMS5003;61633;53.742;-2.990;2022-09-03T07:56:39;56;53;
73414;PMS5003;61633;53.742;-2.990;2022-09-03T07:59:05;59;55;
73414;PMS5003;61633;53.742;-2.990;2022-09-03T08:01:31;60;51;
73414;PMS5003;61633;53.742;-2.990;2022-09-03T08:03:56;55;53;
73414;PMS5003;61633;53.742;-2.990;2022-09-03T08:06:23;60;55;
73414;PMS5003;61633;53.742;-2.990;2022-09-03T08:08:47;61;58;
73414;PMS5003;61633;53.742;-2.990;2022-09-03T08:11:12;57;53;
73414;PMS5003;61633;53.742;-2.990;2022-09-03T08:13:37;59;54;
73414;PMS5003;61633;53.742;-2.990;2022-09-03T08:16:03;60;53;
73414;PMS5003;61633;53.742;-2.990;2022-09-03T08:18:28;61;58;
73414;PMS5003;61633;53.742;-2.990;2022-09-03T08:20:57;57;55;
73414;PMS5003;61633;53.742;-2.990;2022-09-03T08:23:19;62;59;
73414;PMS5003;61633;53.742;-2.990;2022-09-03T08:25:45;57;54;
73414;PMS5003;61633;53.742;-2.990;2022-09-03T08:28:10;58;55;
73414;PMS5003;61633;53.742;-2.990;2022-09-03T08:30:36;56;55;
73414;PMS5003;61633;53.742;-2.990;2022-09-03T08:33:02;57;55;
73414;PMS5003;61633;53.742;-2.990;2022-09-03T08:35:28;59;55;
73414;PMS5003;61633;53.742;-2.990;2022-09-03T08:37:54;61;58;
73414;PMS5003;61633;53.742;-2.990;2022-09-03T08:40:23;66;62;
73414;PMS5003;61633;53.742;-2.990;2022-09-03T08:42:47;62;57;
73414;PMS5003;61633;53.742;-2.990;2022-09-03T08:45:09;60;56;
73414;PMS5003;61633;53.742;-2.990;2022-09-03T08:47:36;63;59;
73414;PMS5003;61633;53.742;-2.990;2022-09-03T08:50:01;54;52;
73414;PMS5003;61633;53.742;-2.990;2022-09-03T08:52:28;58;56;
73414;PMS5003;61633;53.742;-2.990;2022-09-03T08:54:51;57;55;
73414;PMS5003;61633;53.742;-2.990;2022-09-03T08:57:17;55;54;
73414;PMS5003;61633;53.742;-2.990;2022-09-03T08:59:42;58;53;
73414;PMS5003;61633;53.742;-2.990;2022-09-03T09:02:13;60;59;
73414;PMS5003;61633;53.742;-2.990;2022-09-03T09:04:38;56;53;
73414;PMS5003;61633;53.742;-2.990;2022-09-03T09:07:02;60;58;
73414;PMS5003;61633;53.742;-2.990;2022-09-03T09:09:26;55;53;
73414;PMS5003;61633;53.742;-2.990;2022-09-03T09:11:54;56;53;
73414;PMS5003;61633;53.742;-2.990;2022-09-03T09:14:17;59;55;
73414;PMS5003;61633;53.742;-2.990;2022-09-03T09:16:43;52;50;
73414;PMS5003;61633;53.742;-2.990;2022-09-03T09:19:10;59;55;
73414;PMS5003;61633;53.742;-2.990;2022-09-03T09:21:35;55;52;
73414;PMS5003;61633;53.742;-2.990;2022-09-03T09:23:58;58;56;
73414;PMS5003;61633;53.742;-2.990;2022-09-03T09:26:22;56;52;
73414;PMS5003;61633;53.742;-2.990;2022-09-03T09:28:50;56;51;
73414;PMS5003;61633;53.742;-2.990;2022-09-03T09:31:14;62;59;
73414;PMS5003;61633;53.742;-2.990;2022-09-03T09:33:40;57;56;
73414;PMS5003;61633;53.742;-2.990;2022-09-03T09:36:06;56;53;
73414;PMS5003;61633;53.742;-2.990;2022-09-03T09:38:32;58;56;
73414;PMS5003;61633;53.742;-2.990;2022-09-03T09:41:06;61;56;
73414;PMS5003;61633;53.742;-2.990;2022-09-03T09:43:21;59;57;
73414;PMS5003;61633;53.742;-2.990;2022-09-03T09:45:48;55;50;
73414;PMS5003;61633;53.742;-2.990;2022-09-03T09:48:18;56;51;
73414;PMS5003;61633;53.742;-2.990;2022-09-03T09:50:39;52;48;
73414;PMS5003;61633;53.742;-2.990;2022-09-03T09:53:06;59;55;
73414;PMS5003;61633;53.742;-2.990;2022-09-03T09:55:29;46;44;
73414;PMS5003;61633;53.742;-2.990;2022-09-03T10:00:19;54;49;
73414;PMS5003;61633;53.742;-2.990;2022-09-03T10:02:46;53;50;
73414;PMS5003;61633;53.742;-2.990;2022-09-03T10:05:12;44;42;
73414;PMS5003;61633;53.742;-2.990;2022-09-03T10:07:36;43;41;
73414;PMS5003;61633;53.742;-2.990;2022-09-03T10:10:03;48;45;
73414;PMS5003;61633;53.742;-2.990;2022-09-03T10:12:29;47;46;
73414;PMS5003;61633;53.742;-2.990;2022-09-03T10:14:55;48;43;
73414;PMS5003;61633;53.742;-2.990;2022-09-03T10:17:20;45;44;
73414;PMS5003;61633;53.742;-2.990;2022-09-03T10:19:47;50;46;
73414;PMS5003;61633;53.742;-2.990;2022-09-03T10:22:11;47;43;
73414;PMS5003;61633;53.742;-2.990;2022-09-03T10:24:39;43;42;
73414;PMS5003;61633;53.742;-2.990;2022-09-03T10:27:01;50;44;
73414;PMS5003;61633;53.742;-2.990;2022-09-03T10:29:27;46;44;
73414;PMS5003;61633;53.742;-2.990;2022-09-03T10:31:55;47;42;
73414;PMS5003;61633;53.742;-2.990;2022-09-03T10:34:20;49;45;
73414;PMS5003;61633;53.742;-2.990;2022-09-03T10:36:45;43;42;
73414;PMS5003;61633;53.742;-2.990;2022-09-03T10:39:10;43;42;
73414;PMS5003;61633;53.742;-2.990;2022-09-03T10:41:38;44;42;
73414;PMS5003;61633;53.742;-2.990;2022-09-03T10:44:04;43;40;
73414;PMS5003;61633;53.742;-2.990;2022-09-03T10:46:25;43;43;
73414;PMS5003;61633;53.742;-2.990;2022-09-03T10:48:55;41;41;
73414;PMS5003;61633;53.742;-2.990;2022-09-03T10:51:16;44;41;
73414;PMS5003;61633;53.742;-2.990;2022-09-03T10:53:49;42;41;
73414;PMS5003;61633;53.742;-2.990;2022-09-03T10:56:08;44;44;
73414;PMS5003;61633;53.742;-2.990;2022-09-03T10:58:39;49;47;
73414;PMS5003;61633;53.742;-2.990;2022-09-03T11:00:59;49;46;
73414;PMS5003;61633;53.742;-2.990;2022-09-03T11:03:32;51;44;
73414;PMS5003;61633;53.742;-2.990;2022-09-03T11:05:52;44;43;
73414;PMS5003;61633;53.742;-2.990;2022-09-03T11:08:14;45;42;
73414;PMS5003;61633;53.742;-2.990;2022-09-03T11:10:39;45;43;
73414;PMS5003;61633;53.742;-2.990;2022-09-03T11:13:05;43;42;
73414;PMS5003;61633;53.742;-2.990;2022-09-03T11:15:30;43;40;
73414;PMS5003;61633;53.742;-2.990;2022-09-03T11:17:57;42;40;
73414;PMS5003;61633;53.742;-2.990;2022-09-03T11:20:21;43;42;
73414;PMS5003;61633;53.742;-2.990;2022-09-03T11:22:46;44;40;
73414;PMS5003;61633;53.742;-2.990;2022-09-03T11:25:12;45;39;
73414;PMS5003;61633;53.742;-2.990;2022-09-03T11:27:44;37;35;
73414;PMS5003;61633;53.742;-2.990;2022-09-03T11:30:04;33;32;
73414;PMS5003;61633;53.742;-2.990;2022-09-03T11:32:30;37;35;
73414;PMS5003;61633;53.742;-2.990;2022-09-03T11:34:54;29;29;
73414;PMS5003;61633;53.742;-2.990;2022-09-03T11:37:20;37;37;
73414;PMS5003;61633;53.742;-2.990;2022-09-03T11:39:51;37;36;
73414;PMS5003;61633;53.742;-2.990;2022-09-03T11:42:11;32;31;
73414;PMS5003;61633;53.742;-2.990;2022-09-03T11:44:36;31;29;
73414;PMS5003;61633;53.742;-2.990;2022-09-03T11:47:01;27;26;
73414;PMS5003;61633;53.742;-2.990;2022-09-03T11:49:27;30;29;
73414;PMS5003;61633;53.742;-2.990;2022-09-03T11:51:55;29;28;
73414;PMS5003;61633;53.742;-2.990;2022-09-03T11:54:24;27;27;
73414;PMS5003;61633;53.742;-2.990;2022-09-03T11:56:42;32;29;
73414;PMS5003;61633;53.742;-2.990;2022-09-03T12:01:33;25;25;
73414;PMS5003;61633;53.742;-2.990;2022-09-03T12:03:59;25;25;
73414;PMS5003;61633;53.742;-2.990;2022-09-03T12:06:29;28;27;
73414;PMS5003;61633;53.742;-2.990;2022-09-03T12:08:54;25;24;
73414;PMS5003;61633;53.742;-2.990;2022-09-03T12:11:22;23;22;
73414;PMS5003;61633;53.742;-2.990;2022-09-03T12:13:44;25;24;
73414;PMS5003;61633;53.742;-2.990;2022-09-03T12:16:11;26;26;
73414;PMS5003;61633;53.742;-2.990;2022-09-03T12:18:32;24;24;
73414;PMS5003;61633;53.742;-2.990;2022-09-03T12:21:01;22;22;
73414;PMS5003;61633;53.742;-2.990;2022-09-03T12:23:26;27;24;
73414;PMS5003;61633;53.742;-2.990;2022-09-03T12:25:49;27;25;
73414;PMS5003;61633;53.742;-2.990;2022-09-03T12:28:15;24;24;
73414;PMS5003;61633;53.742;-2.990;2022-09-03T12:30:39;28;26;
73414;PMS5003;61633;53.742;-2.990;2022-09-03T12:33:04;27;26;
73414;PMS5003;61633;53.742;-2.990;2022-09-03T12:35:30;24;23;
73414;PMS5003;61633;53.742;-2.990;2022-09-03T12:37:56;30;26;
73414;PMS5003;61633;53.742;-2.990;2022-09-03T12:40:22;28;26;
73414;PMS5003;61633;53.742;-2.990;2022-09-03T12:42:46;25;23;
73414;PMS5003;61633;53.742;-2.990;2022-09-03T12:45:11;23;23;
73414;PMS5003;61633;53.742;-2.990;2022-09-03T12:47:37;28;26;
73414;PMS5003;61633;53.742;-2.990;2022-09-03T12:50:04;23;21;
73414;PMS5003;61633;53.742;-2.990;2022-09-03T12:52:28;27;22;
73414;PMS5003;61633;53.742;-2.990;2022-09-03T12:54:54;26;26;
73414;PMS5003;61633;53.742;-2.990;2022-09-03T12:57:20;23;22;
73414;PMS5003;61633;53.742;-2.990;2022-09-03T12:59:44;23;23;
73414;PMS5003;61633;53.742;-2.990;2022-09-03T13:02:12;22;22;
73414;PMS5003;61633;53.742;-2.990;2022-09-03T13:04:34;20;19;
73414;PMS5003;61633;53.742;-2.990;2022-09-03T13:07:00;21;20;
73414;PMS5003;61633;53.742;-2.990;2022-09-03T13:09:25;20;18;
73414;PMS5003;61633;53.742;-2.990;2022-09-03T13:11:50;17;17;
73414;PMS5003;61633;53.742;-2.990;2022-09-03T13:14:15;20;20;
73414;PMS5003;61633;53.742;-2.990;2022-09-03T13:16:46;13;13;
73414;PMS5003;61633;53.742;-2.990;2022-09-03T13:19:08;19;17;
73414;PMS5003;61633;53.742;-2.990;2022-09-03T13:21:34;20;19;
73414;PMS5003;61633;53.742;-2.990;2022-09-03T13:24:01;21;19;
73414;PMS5003;61633;53.742;-2.990;2022-09-03T13:26:25;22;21;
73414;PMS5003;61633;53.742;-2.990;2022-09-03T13:28:52;22;22;
73414;PMS5003;61633;53.742;-2.990;2022-09-03T13:33:40;24;19;
73414;PMS5003;61633;53.742;-2.990;2022-09-03T13:36:08;19;19;
73414;PMS5003;61633;53.742;-2.990;2022-09-03T13:38:32;15;15;
73414;PMS5003;61633;53.742;-2.990;2022-09-03T13:40:57;14;13;
73414;PMS5003;61633;53.742;-2.990;2022-09-03T13:43:24;13;12;
73414;PMS5003;61633;53.742;-2.990;2022-09-03T13:45:49;12;12;
73414;PMS5003;61633;53.742;-2.990;2022-09-03T13:48:13;10;10;
73414;PMS5003;61633;53.742;-2.990;2022-09-03T13:50:40;14;13;
73414;PMS5003;61633;53.742;-2.990;2022-09-03T13:53:03;12;12;
73414;PMS5003;61633;53.742;-2.990;2022-09-03T13:55:30;12;12;
73414;PMS5003;61633;53.742;-2.990;2022-09-03T13:57:54;15;14;
73414;PMS5003;61633;53.742;-2.990;2022-09-03T14:00:23;13;13;
73414;PMS5003;61633;53.742;-2.990;2022-09-03T14:02:47;12;12;
73414;PMS5003;61633;53.742;-2.990;2022-09-03T14:05:10;12;12;
73414;PMS5003;61633;53.742;-2.990;2022-09-03T14:07:43;14;12;
73414;PMS5003;61633;53.742;-2.990;2022-09-03T14:10:03;13;13;
73414;PMS5003;61633;53.742;-2.990;2022-09-03T14:12:30;12;12;
73414;PMS5003;61633;53.742;-2.990;2022-09-03T14:14:52;13;13;
73414;PMS5003;61633;53.742;-2.990;2022-09-03T14:17:18;16;13;
73414;PMS5003;61633;53.742;-2.990;2022-09-03T14:19:43;13;12;
73414;PMS5003;61633;53.742;-2.990;2022-09-03T14:22:08;14;13;
73414;PMS5003;61633;53.742;-2.990;2022-09-03T14:24:35;14;14;
73414;PMS5003;61633;53.742;-2.990;2022-09-03T14:26:58;18;18;
73414;PMS5003;61633;53.742;-2.990;2022-09-03T14:29:24;17;17;
73414;PMS5003;61633;53.742;-2.990;2022-09-03T14:31:56;15;13;
73414;PMS5003;61633;53.742;-2.990;2022-09-03T14:34:16;14;14;
73414;PMS5003;61633;53.742;-2.990;2022-09-03T14:36:41;14;14;
73414;PMS5003;61633;53.742;-2.990;2022-09-03T14:39:10;19;16;
73414;PMS5003;61633;53.742;-2.990;2022-09-03T14:46:28;14;14;
73414;PMS5003;61633;53.742;-2.990;2022-09-03T14:48:57;14;14;
73414;PMS5003;61633;53.742;-2.990;2022-09-03T14:51:17;16;15;
73414;PMS5003;61633;53.742;-2.990;2022-09-03T14:53:49;13;13;
73414;PMS5003;61633;53.742;-2.990;2022-09-03T14:56:11;17;15;
73414;PMS5003;61633;53.742;-2.990;2022-09-03T14:58:33;15;15;
73414;PMS5003;61633;53.742;-2.990;2022-09-03T15:00:55;18;17;
73414;PMS5003;61633;53.742;-2.990;2022-09-03T15:03:29;15;15;
73414;PMS5003;61633;53.742;-2.990;2022-09-03T15:05:48;15;13;
73414;PMS5003;61633;53.742;-2.990;2022-09-03T15:08:11;14;13;
73414;PMS5003;61633;53.742;-2.990;2022-09-03T15:10:36;13;13;
73414;PMS5003;61633;53.742;-2.990;2022-09-03T15:13:07;18;15;
73414;PMS5003;61633;53.742;-2.990;2022-09-03T15:15:28;13;13;
73414;PMS5003;61633;53.742;-2.990;2022-09-03T15:17:54;14;14;
73414;PMS5003;61633;53.742;-2.990;2022-09-03T15:20:20;18;18;
73414;PMS5003;61633;53.742;-2.990;2022-09-03T15:22:49;13;13;
73414;PMS5003;61633;53.742;-2.990;2022-09-03T15:25:13;17;17;
73414;PMS5003;61633;53.742;-2.990;2022-09-03T15:27:38;14;14;
73414;PMS5003;61633;53.742;-2.990;2022-09-03T15:30:00;14;14;
73414;PMS5003;61633;53.742;-2.990;2022-09-03T15:32:28;16;16;
73414;PMS5003;61633;53.742;-2.990;2022-09-03T15:34:54;14;14;
73414;PMS5003;61633;53.742;-2.990;2022-09-03T15:37:17;17;15;
73414;PMS5003;61633;53.742;-2.990;2022-09-03T15:39:41;18;16;
73414;PMS5003;61633;53.742;-2.990;2022-09-03T15:42:07;16;16;
73414;PMS5003;61633;53.742;-2.990;2022-09-03T15:44:33;17;17;
73414;PMS5003;61633;53.742;-2.990;2022-09-03T15:46:57;15;15;
73414;PMS5003;61633;53.742;-2.990;2022-09-03T15:49:25;16;14;
73414;PMS5003;61633;53.742;-2.990;2022-09-03T15:51:50;17;16;
73414;PMS5003;61633;53.742;-2.990;2022-09-03T15:54:14;18;17;
73414;PMS5003;61633;53.742;-2.990;2022-09-03T15:56:39;14;14;
73414;PMS5003;61633;53.742;-2.990;2022-09-03T15:59:06;17;16;
73414;PMS5003;61633;53.742;-2.990;2022-09-03T16:01:34;15;13;